sensor_id;sensor_type;location;lat;lon;timestamp;P1;durP1;ratioP1;P2;durP2;ratioP2
27383;SDS011;14851;51.166;4.760;2022-12-29T02:05:24;1.90;;;0.75;;
27383;SDS011;14851;51.166;4.760;2022-12-29T02:08:26;12.65;;;0.98;;
27383;SDS011;14851;51.166;4.760;2022-12-29T02:10:54;3.83;;;0.70;;
27383;SDS011;14851;51.166;4.760;2022-12-29T02:13:23;1.85;;;0.70;;
27383;SDS011;14851;51.166;4.760;2022-12-29T02:27:09;1.05;;;0.50;;
27383;SDS011;14851;51.166;4.760;2022-12-29T02:35:37;1.90;;;0.55;;
27383;SDS011;14851;51.166;4.760;2022-12-29T02:43:26;3.28;;;0.68;;
27383;SDS011;14851;51.166;4.760;2022-12-29T02:46:18;4.32;;;0.60;;
27383;SDS011;14851;51.166;4.760;2022-12-29T02:49:13;2.17;;;0.75;;
27383;SDS011;14851;51.166;4.760;2022-12-29T02:51:50;2.55;;;0.65;;
27383;SDS011;14851;51.166;4.760;2022-12-29T02:54:26;2.97;;;0.70;;
27383;SDS011;14851;51.166;4.760;2022-12-29T02:57:10;1.45;;;0.60;;
27383;SDS011;14851;51.166;4.760;2022-12-29T02:59:40;3.83;;;0.70;;
27383;SDS011;14851;51.166;4.760;2022-12-29T03:02:19;2.75;;;0.80;;
27383;SDS011;14851;51.166;4.760;2022-12-29T03:07:55;3.88;;;0.70;;
27383;SDS011;14851;51.166;4.760;2022-12-29T03:13:25;2.90;;;0.60;;
27383;SDS011;14851;51.166;4.760;2022-12-29T03:16:14;7.05;;;1.23;;
27383;SDS011;14851;51.166;4.760;2022-12-29T03:18:47;3.05;;;1.15;;
27383;SDS011;14851;51.166;4.760;2022-12-29T03:21:33;3.83;;;0.90;;
27383;SDS011;14851;51.166;4.760;2022-12-29T03:24:38;4.68;;;0.85;;
27383;SDS011;14851;51.166;4.760;2022-12-29T03:27:13;2.95;;;0.85;;
27383;SDS011;14851;51.166;4.760;2022-12-29T03:29:46;4.60;;;0.73;;
27383;SDS011;14851;51.166;4.760;2022-12-29T03:32:19;2.88;;;0.60;;
27383;SDS011;14851;51.166;4.760;2022-12-29T03:34:47;5.22;;;0.80;;
27383;SDS011;14851;51.166;4.760;2022-12-29T03:37:18;5.38;;;0.90;;
27383;SDS011;14851;51.166;4.760;2022-12-29T03:39:49;2.60;;;0.65;;
27383;SDS011;14851;51.166;4.760;2022-12-29T03:42:19;2.95;;;0.60;;
27383;SDS011;14851;51.166;4.760;2022-12-29T03:44:47;4.25;;;0.95;;
27383;SDS011;14851;51.166;4.760;2022-12-29T03:47:14;3.53;;;0.75;;
27383;SDS011;14851;51.166;4.760;2022-12-29T03:49:44;4.30;;;0.80;;
27383;SDS011;14851;51.166;4.760;2022-12-29T03:52:11;7.47;;;1.20;;
27383;SDS011;14851;51.166;4.760;2022-12-29T03:54:41;6.72;;;1.08;;
27383;SDS011;14851;51.166;4.760;2022-12-29T05:17:15;5.20;;;1.10;;
27383;SDS011;14851;51.166;4.760;2022-12-29T05:19:41;4.10;;;0.93;;
27383;SDS011;14851;51.166;4.760;2022-12-29T05:22:13;6.22;;;1.30;;
27383;SDS011;14851;51.166;4.760;2022-12-29T05:24:40;4.85;;;0.90;;
27383;SDS011;14851;51.166;4.760;2022-12-29T05:27:06;4.50;;;0.90;;
27383;SDS011;14851;51.166;4.760;2022-12-29T05:29:50;5.75;;;1.60;;
27383;SDS011;14851;51.166;4.760;2022-12-29T05:32:19;3.95;;;0.73;;
27383;SDS011;14851;51.166;4.760;2022-12-29T05:34:45;6.10;;;1.13;;
27383;SDS011;14851;51.166;4.760;2022-12-29T05:37:11;5.63;;;0.90;;
27383;SDS011;14851;51.166;4.760;2022-12-29T05:39:42;4.43;;;0.80;;
27383;SDS011;14851;51.166;4.760;2022-12-29T05:42:13;4.95;;;0.98;;
27383;SDS011;14851;51.166;4.760;2022-12-29T05:44:57;10.18;;;1.30;;
27383;SDS011;14851;51.166;4.760;2022-12-29T05:47:55;4.72;;;0.90;;
27383;SDS011;14851;51.166;4.760;2022-12-29T05:50:48;3.08;;;0.75;;
27383;SDS011;14851;51.166;4.760;2022-12-29T05:53:19;5.85;;;0.85;;
27383;SDS011;14851;51.166;4.760;2022-12-29T05:55:48;4.90;;;1.23;;
27383;SDS011;14851;51.166;4.760;2022-12-29T06:00:42;5.57;;;0.80;;
27383;SDS011;14851;51.166;4.760;2022-12-29T06:03:11;2.90;;;1.20;;
27383;SDS011;14851;51.166;4.760;2022-12-29T06:05:38;4.22;;;0.90;;
27383;SDS011;14851;51.166;4.760;2022-12-29T06:08:04;7.85;;;2.08;;
27383;SDS011;14851;51.166;4.760;2022-12-29T08:19:01;10.77;;;2.20;;
27383;SDS011;14851;51.166;4.760;2022-12-29T08:21:29;7.40;;;2.33;;
27383;SDS011;14851;51.166;4.760;2022-12-29T08:23:55;10.35;;;2.25;;
27383;SDS011;14851;51.166;4.760;2022-12-29T08:26:22;13.23;;;2.70;;
27383;SDS011;14851;51.166;4.760;2022-12-29T08:28:48;9.65;;;2.40;;
27383;SDS011;14851;51.166;4.760;2022-12-29T08:31:14;9.32;;;1.60;;
27383;SDS011;14851;51.166;4.760;2022-12-29T08:33:40;7.30;;;1.77;;
27383;SDS011;14851;51.166;4.760;2022-12-29T08:36:09;7.78;;;1.73;;
27383;SDS011;14851;51.166;4.760;2022-12-29T08:38:35;11.05;;;1.85;;
27383;SDS011;14851;51.166;4.760;2022-12-29T08:41:03;9.93;;;2.30;;
27383;SDS011;14851;51.166;4.760;2022-12-29T08:43:30;7.75;;;1.67;;
27383;SDS011;14851;51.166;4.760;2022-12-29T08:45:57;6.75;;;1.42;;
27383;SDS011;14851;51.166;4.760;2022-12-29T08:48:25;9.40;;;1.95;;
27383;SDS011;14851;51.166;4.760;2022-12-29T08:50:52;10.90;;;1.95;;
27383;SDS011;14851;51.166;4.760;2022-12-29T08:53:22;13.18;;;2.45;;
27383;SDS011;14851;51.166;4.760;2022-12-29T08:55:54;9.70;;;2.90;;
27383;SDS011;14851;51.166;4.760;2022-12-29T08:58:25;9.32;;;1.95;;
27383;SDS011;14851;51.166;4.760;2022-12-29T09:00:55;9.63;;;2.00;;
27383;SDS011;14851;51.166;4.760;2022-12-29T09:03:22;10.60;;;1.75;;
27383;SDS011;14851;51.166;4.760;2022-12-29T09:05:50;7.78;;;1.80;;
27383;SDS011;14851;51.166;4.760;2022-12-29T09:08:19;9.80;;;1.90;;
27383;SDS011;14851;51.166;4.760;2022-12-29T09:10:45;8.75;;;1.75;;
27383;SDS011;14851;51.166;4.760;2022-12-29T09:13:12;10.98;;;2.25;;
27383;SDS011;14851;51.166;4.760;2022-12-29T09:15:39;10.23;;;1.83;;
27383;SDS011;14851;51.166;4.760;2022-12-29T09:18:06;9.10;;;1.67;;
27383;SDS011;14851;51.166;4.760;2022-12-29T09:20:34;10.15;;;2.42;;
27383;SDS011;14851;51.166;4.760;2022-12-29T09:23:03;11.57;;;1.42;;
27383;SDS011;14851;51.166;4.760;2022-12-29T09:25:31;11.68;;;2.15;;
27383;SDS011;14851;51.166;4.760;2022-12-29T09:27:59;12.18;;;2.35;;
27383;SDS011;14851;51.166;4.760;2022-12-29T09:30:28;8.80;;;2.17;;
27383;SDS011;14851;51.166;4.760;2022-12-29T09:32:54;8.90;;;1.85;;
27383;SDS011;14851;51.166;4.760;2022-12-29T09:35:21;8.48;;;1.50;;
27383;SDS011;14851;51.166;4.760;2022-12-29T09:37:47;11.65;;;2.92;;
27383;SDS011;14851;51.166;4.760;2022-12-29T09:40:30;13.52;;;2.22;;
27383;SDS011;14851;51.166;4.760;2022-12-29T09:45:43;9.35;;;1.70;;
27383;SDS011;14851;51.166;4.760;2022-12-29T09:48:32;8.65;;;1.88;;
27383;SDS011;14851;51.166;4.760;2022-12-29T09:51:03;11.85;;;2.20;;
27383;SDS011;14851;51.166;4.760;2022-12-29T09:53:36;13.98;;;2.00;;
27383;SDS011;14851;51.166;4.760;2022-12-29T09:56:11;8.23;;;1.98;;
27383;SDS011;14851;51.166;4.760;2022-12-29T09:58:48;10.02;;;1.83;;
27383;SDS011;14851;51.166;4.760;2022-12-29T10:04:16;9.00;;;1.77;;
27383;SDS011;14851;51.166;4.760;2022-12-29T10:09:30;12.20;;;2.28;;
27383;SDS011;14851;51.166;4.760;2022-12-29T10:17:49;12.40;;;1.70;;
27383;SDS011;14851;51.166;4.760;2022-12-29T10:20:38;9.02;;;2.10;;
27383;SDS011;14851;51.166;4.760;2022-12-29T10:26:12;10.82;;;1.90;;
27383;SDS011;14851;51.166;4.760;2022-12-29T10:28:48;12.88;;;2.17;;
27383;SDS011;14851;51.166;4.760;2022-12-29T10:34:20;13.82;;;2.50;;
27383;SDS011;14851;51.166;4.760;2022-12-29T10:36:49;14.80;;;2.28;;
27383;SDS011;14851;51.166;4.760;2022-12-29T10:39:23;15.35;;;3.28;;
27383;SDS011;14851;51.166;4.760;2022-12-29T10:44:49;10.25;;;2.42;;
27383;SDS011;14851;51.166;4.760;2022-12-29T10:47:20;10.07;;;1.88;;
27383;SDS011;14851;51.166;4.760;2022-12-29T10:49:55;15.98;;;2.80;;
27383;SDS011;14851;51.166;4.760;2022-12-29T10:52:23;13.38;;;2.70;;
27383;SDS011;14851;51.166;4.760;2022-12-29T10:54:55;11.82;;;2.10;;
27383;SDS011;14851;51.166;4.760;2022-12-29T10:57:28;11.63;;;1.80;;
27383;SDS011;14851;51.166;4.760;2022-12-29T11:00:12;12.43;;;2.40;;
27383;SDS011;14851;51.166;4.760;2022-12-29T11:08:02;13.70;;;2.10;;
27383;SDS011;14851;51.166;4.760;2022-12-29T11:13:16;11.55;;;2.00;;
27383;SDS011;14851;51.166;4.760;2022-12-29T11:15:53;19.02;;;2.30;;
27383;SDS011;14851;51.166;4.760;2022-12-29T11:20:55;10.43;;;2.22;;
27383;SDS011;14851;51.166;4.760;2022-12-29T11:28:34;9.40;;;2.33;;
27383;SDS011;14851;51.166;4.760;2022-12-29T11:31:01;9.93;;;2.25;;
27383;SDS011;14851;51.166;4.760;2022-12-29T11:33:29;11.77;;;2.65;;
27383;SDS011;14851;51.166;4.760;2022-12-29T11:38:40;14.23;;;4.22;;
27383;SDS011;14851;51.166;4.760;2022-12-29T11:41:27;11.80;;;3.20;;
27383;SDS011;14851;51.166;4.760;2022-12-29T11:44:02;9.02;;;2.40;;
27383;SDS011;14851;51.166;4.760;2022-12-29T11:46:34;12.48;;;2.55;;
27383;SDS011;14851;51.166;4.760;2022-12-29T11:49:03;12.02;;;3.00;;
27383;SDS011;14851;51.166;4.760;2022-12-29T11:51:39;15.05;;;2.42;;
27383;SDS011;14851;51.166;4.760;2022-12-29T11:54:13;10.50;;;2.50;;
27383;SDS011;14851;51.166;4.760;2022-12-29T11:56:55;10.38;;;2.03;;
27383;SDS011;14851;51.166;4.760;2022-12-29T11:59:34;12.05;;;2.85;;
27383;SDS011;14851;51.166;4.760;2022-12-29T12:02:10;11.45;;;2.30;;
27383;SDS011;14851;51.166;4.760;2022-12-29T12:04:53;10.38;;;2.15;;
27383;SDS011;14851;51.166;4.760;2022-12-29T12:07:37;12.68;;;2.20;;
27383;SDS011;14851;51.166;4.760;2022-12-29T12:10:15;11.40;;;2.08;;
27383;SDS011;14851;51.166;4.760;2022-12-29T12:12:50;11.75;;;2.53;;
27383;SDS011;14851;51.166;4.760;2022-12-29T12:15:31;14.45;;;2.83;;
27383;SDS011;14851;51.166;4.760;2022-12-29T12:20:56;11.27;;;2.63;;
27383;SDS011;14851;51.166;4.760;2022-12-29T12:23:30;9.27;;;2.00;;
27383;SDS011;14851;51.166;4.760;2022-12-29T12:26:19;14.32;;;2.78;;
27383;SDS011;14851;51.166;4.760;2022-12-29T12:29:04;13.52;;;3.03;;
27383;SDS011;14851;51.166;4.760;2022-12-29T12:34:38;16.55;;;2.63;;
27383;SDS011;14851;51.166;4.760;2022-12-29T12:37:13;9.05;;;2.08;;
27383;SDS011;14851;51.166;4.760;2022-12-29T12:40:28;12.35;;;2.72;;
27383;SDS011;14851;51.166;4.760;2022-12-29T12:45:27;15.82;;;2.63;;
27383;SDS011;14851;51.166;4.760;2022-12-29T12:53:53;11.25;;;2.05;;
27383;SDS011;14851;51.166;4.760;2022-12-29T13:02:02;11.20;;;2.28;;
27383;SDS011;14851;51.166;4.760;2022-12-29T13:13:13;6.97;;;2.17;;
27383;SDS011;14851;51.166;4.760;2022-12-29T13:15:49;10.10;;;2.25;;
27383;SDS011;14851;51.166;4.760;2022-12-29T13:18:56;13.77;;;2.70;;
27383;SDS011;14851;51.166;4.760;2022-12-29T13:24:16;6.38;;;2.03;;
27383;SDS011;14851;51.166;4.760;2022-12-29T13:26:53;11.18;;;2.25;;
27383;SDS011;14851;51.166;4.760;2022-12-29T13:29:33;14.48;;;2.83;;
27383;SDS011;14851;51.166;4.760;2022-12-29T13:37:51;12.25;;;2.90;;
27383;SDS011;14851;51.166;4.760;2022-12-29T13:40:24;9.00;;;1.85;;
27383;SDS011;14851;51.166;4.760;2022-12-29T13:42:53;6.47;;;2.40;;
27383;SDS011;14851;51.166;4.760;2022-12-29T13:45:23;10.73;;;1.92;;
27383;SDS011;14851;51.166;4.760;2022-12-29T13:47:57;8.70;;;1.90;;
27383;SDS011;14851;51.166;4.760;2022-12-29T13:50:26;12.20;;;2.95;;
27383;SDS011;14851;51.166;4.760;2022-12-29T13:59:44;6.50;;;1.90;;
27383;SDS011;14851;51.166;4.760;2022-12-29T14:06:02;12.95;;;4.15;;
27383;SDS011;14851;51.166;4.760;2022-12-29T14:07:48;5.43;;;1.92;;
27383;SDS011;14851;51.166;4.760;2022-12-29T14:10:28;10.38;;;1.92;;
27383;SDS011;14851;51.166;4.760;2022-12-29T14:15:38;8.88;;;2.30;;
27383;SDS011;14851;51.166;4.760;2022-12-29T14:18:13;7.72;;;1.63;;
27383;SDS011;14851;51.166;4.760;2022-12-29T14:20:51;10.18;;;2.75;;
27383;SDS011;14851;51.166;4.760;2022-12-29T14:28:35;8.95;;;1.67;;
27383;SDS011;14851;51.166;4.760;2022-12-29T14:31:48;8.48;;;1.80;;
27383;SDS011;14851;51.166;4.760;2022-12-29T14:39:48;9.80;;;2.22;;
27383;SDS011;14851;51.166;4.760;2022-12-29T14:42:06;11.90;;;2.03;;
27383;SDS011;14851;51.166;4.760;2022-12-29T14:49:52;7.25;;;1.40;;
27383;SDS011;14851;51.166;4.760;2022-12-29T14:52:20;4.82;;;1.08;;
27383;SDS011;14851;51.166;4.760;2022-12-29T14:59:48;7.68;;;1.23;;
27383;SDS011;14851;51.166;4.760;2022-12-29T15:02:20;3.90;;;0.77;;
27383;SDS011;14851;51.166;4.760;2022-12-29T15:04:49;1.92;;;0.75;;
27383;SDS011;14851;51.166;4.760;2022-12-29T15:07:19;4.30;;;0.70;;
27383;SDS011;14851;51.166;4.760;2022-12-29T15:09:47;3.65;;;0.80;;
27383;SDS011;14851;51.166;4.760;2022-12-29T15:15:01;5.93;;;1.27;;
27383;SDS011;14851;51.166;4.760;2022-12-29T15:17:44;5.97;;;0.88;;
27383;SDS011;14851;51.166;4.760;2022-12-29T15:20:16;4.60;;;1.05;;
27383;SDS011;14851;51.166;4.760;2022-12-29T15:22:52;5.03;;;1.30;;
27383;SDS011;14851;51.166;4.760;2022-12-29T15:25:23;7.50;;;0.98;;
27383;SDS011;14851;51.166;4.760;2022-12-29T15:27:58;4.05;;;0.70;;
27383;SDS011;14851;51.166;4.760;2022-12-29T15:30:27;3.10;;;0.93;;
27383;SDS011;14851;51.166;4.760;2022-12-29T15:32:53;5.10;;;1.10;;
27383;SDS011;14851;51.166;4.760;2022-12-29T15:35:28;3.80;;;0.80;;
27383;SDS011;14851;51.166;4.760;2022-12-29T15:38:12;5.88;;;1.08;;
27383;SDS011;14851;51.166;4.760;2022-12-29T15:40:41;4.95;;;0.90;;
27383;SDS011;14851;51.166;4.760;2022-12-29T15:46:01;7.05;;;1.55;;
27383;SDS011;14851;51.166;4.760;2022-12-29T15:48:28;6.25;;;1.60;;
27383;SDS011;14851;51.166;4.760;2022-12-29T15:50:55;9.73;;;1.17;;
27383;SDS011;14851;51.166;4.760;2022-12-29T15:53:22;7.20;;;1.85;;
27383;SDS011;14851;51.166;4.760;2022-12-29T15:55:51;8.00;;;2.00;;
27383;SDS011;14851;51.166;4.760;2022-12-29T15:58:21;14.75;;;2.17;;
27383;SDS011;14851;51.166;4.760;2022-12-29T16:00:56;14.40;;;2.50;;
27383;SDS011;14851;51.166;4.760;2022-12-29T16:03:29;13.02;;;2.20;;
27383;SDS011;14851;51.166;4.760;2022-12-29T16:06:09;10.45;;;2.40;;
27383;SDS011;14851;51.166;4.760;2022-12-29T16:09:00;10.45;;;2.53;;
27383;SDS011;14851;51.166;4.760;2022-12-29T16:11:35;8.10;;;2.25;;
27383;SDS011;14851;51.166;4.760;2022-12-29T16:14:07;11.52;;;2.17;;
27383;SDS011;14851;51.166;4.760;2022-12-29T16:16:42;13.02;;;2.55;;
27383;SDS011;14851;51.166;4.760;2022-12-29T16:19:17;11.38;;;2.08;;
27383;SDS011;14851;51.166;4.760;2022-12-29T16:21:51;12.45;;;2.15;;
27383;SDS011;14851;51.166;4.760;2022-12-29T16:24:18;8.90;;;2.08;;
27383;SDS011;14851;51.166;4.760;2022-12-29T16:26:51;10.95;;;2.00;;
27383;SDS011;14851;51.166;4.760;2022-12-29T16:29:27;10.55;;;2.17;;
27383;SDS011;14851;51.166;4.760;2022-12-29T16:31:56;8.75;;;1.90;;
27383;SDS011;14851;51.166;4.760;2022-12-29T16:37:02;8.30;;;1.90;;
27383;SDS011;14851;51.166;4.760;2022-12-29T16:39:51;9.82;;;2.38;;
27383;SDS011;14851;51.166;4.760;2022-12-29T16:42:44;8.82;;;2.05;;
27383;SDS011;14851;51.166;4.760;2022-12-29T16:50:32;8.97;;;1.67;;
27383;SDS011;14851;51.166;4.760;2022-12-29T16:53:00;6.05;;;1.65;;
27383;SDS011;14851;51.166;4.760;2022-12-29T16:55:31;10.90;;;2.38;;
27383;SDS011;14851;51.166;4.760;2022-12-29T16:58:02;8.48;;;1.45;;
27383;SDS011;14851;51.166;4.760;2022-12-29T17:00:29;9.63;;;2.40;;
27383;SDS011;14851;51.166;4.760;2022-12-29T17:03:01;8.05;;;2.63;;
27383;SDS011;14851;51.166;4.760;2022-12-29T17:05:29;23.15;;;6.85;;
27383;SDS011;14851;51.166;4.760;2022-12-29T17:07:54;11.43;;;2.42;;
27383;SDS011;14851;51.166;4.760;2022-12-29T17:10:26;10.85;;;3.17;;
27383;SDS011;14851;51.166;4.760;2022-12-29T17:13:15;13.18;;;2.67;;
27383;SDS011;14851;51.166;4.760;2022-12-29T17:15:41;9.07;;;2.58;;
27383;SDS011;14851;51.166;4.760;2022-12-29T17:18:07;13.88;;;3.33;;
27383;SDS011;14851;51.166;4.760;2022-12-29T17:20:36;11.70;;;2.75;;
27383;SDS011;14851;51.166;4.760;2022-12-29T17:23:04;13.38;;;3.65;;
27383;SDS011;14851;51.166;4.760;2022-12-29T17:25:39;12.25;;;3.70;;
27383;SDS011;14851;51.166;4.760;2022-12-29T17:28:12;15.70;;;3.88;;
27383;SDS011;14851;51.166;4.760;2022-12-29T17:30:46;16.02;;;3.30;;
27383;SDS011;14851;51.166;4.760;2022-12-29T17:33:17;15.68;;;3.53;;
27383;SDS011;14851;51.166;4.760;2022-12-29T17:35:47;17.70;;;3.35;;
27383;SDS011;14851;51.166;4.760;2022-12-29T17:40:43;19.60;;;3.78;;
27383;SDS011;14851;51.166;4.760;2022-12-29T17:43:11;14.73;;;3.72;;
27383;SDS011;14851;51.166;4.760;2022-12-29T17:45:39;14.30;;;3.58;;
27383;SDS011;14851;51.166;4.760;2022-12-29T17:48:15;12.90;;;4.38;;
27383;SDS011;14851;51.166;4.760;2022-12-29T17:50:43;15.45;;;3.40;;
27383;SDS011;14851;51.166;4.760;2022-12-29T17:53:15;13.40;;;3.60;;
27383;SDS011;14851;51.166;4.760;2022-12-29T17:55:46;14.52;;;3.38;;
27383;SDS011;14851;51.166;4.760;2022-12-29T18:00:55;14.68;;;3.33;;
27383;SDS011;14851;51.166;4.760;2022-12-29T18:03:28;17.75;;;3.75;;
27383;SDS011;14851;51.166;4.760;2022-12-29T18:05:59;16.05;;;3.63;;
27383;SDS011;14851;51.166;4.760;2022-12-29T18:08:26;16.63;;;3.95;;
27383;SDS011;14851;51.166;4.760;2022-12-29T18:10:53;16.13;;;3.65;;
27383;SDS011;14851;51.166;4.760;2022-12-29T18:13:24;17.38;;;3.83;;
27383;SDS011;14851;51.166;4.760;2022-12-29T18:15:57;11.82;;;3.83;;
27383;SDS011;14851;51.166;4.760;2022-12-29T18:18:24;15.43;;;3.65;;
27383;SDS011;14851;51.166;4.760;2022-12-29T18:20:53;17.13;;;4.43;;
27383;SDS011;14851;51.166;4.760;2022-12-29T18:23:25;16.42;;;4.13;;
27383;SDS011;14851;51.166;4.760;2022-12-29T18:25:56;17.23;;;4.50;;
27383;SDS011;14851;51.166;4.760;2022-12-29T18:28:30;16.60;;;4.03;;
27383;SDS011;14851;51.166;4.760;2022-12-29T18:30:58;11.60;;;3.67;;
27383;SDS011;14851;51.166;4.760;2022-12-29T18:33:26;18.10;;;3.90;;
27383;SDS011;14851;51.166;4.760;2022-12-29T18:36:02;13.68;;;3.45;;
27383;SDS011;14851;51.166;4.760;2022-12-29T18:38:29;13.02;;;3.38;;
27383;SDS011;14851;51.166;4.760;2022-12-29T18:40:56;17.58;;;3.13;;
27383;SDS011;14851;51.166;4.760;2022-12-29T18:43:23;16.10;;;4.50;;
27383;SDS011;14851;51.166;4.760;2022-12-29T18:45:49;10.90;;;3.17;;
27383;SDS011;14851;51.166;4.760;2022-12-29T18:48:17;14.43;;;3.33;;
27383;SDS011;14851;51.166;4.760;2022-12-29T18:50:44;13.32;;;3.72;;
27383;SDS011;14851;51.166;4.760;2022-12-29T18:53:18;15.38;;;3.13;;
27383;SDS011;14851;51.166;4.760;2022-12-29T18:55:46;13.10;;;3.10;;
27383;SDS011;14851;51.166;4.760;2022-12-29T18:58:12;14.82;;;3.63;;
